Time;durP1;ratioP1;P1;durP2;ratioP2;P2;SDS_P1;SDS_P2;PMS_P1;PMS_P2;Temp;Humidity;BMP_temperature;BMP_pressure;BME280_temperature;BME280_humidity;BME280_pressure;Samples;Min_cycle;Max_cycle;Signal;HPM_P1;HPM_P2
2021/05/01 00:00:35;;;;;;;11.68;7.53;;;;;;;21.04;50.67;100153.38;1834005;78;21147;-77
2021/05/01 00:03:02;;;;;;;13.43;7.50;;;;;;;21.04;50.71;100152.01;1834162;78;21132;-79
2021/05/01 00:05:30;;;;;;;9.00;7.12;;;;;;;21.03;50.69;100159.89;1834223;78;21060;-78
2021/05/01 00:07:57;;;;;;;14.23;7.37;;;;;;;21.01;50.66;100157.38;1831299;78;21480;-77
2021/05/01 00:10:25;;;;;;;;;;;;;;;21.01;50.57;100159.28;1816441;79;21130;-76
2021/05/01 00:12:52;;;;;;;11.68;6.10;;;;;;;21.00;50.54;100163.07;1813453;79;20248;-76
2021/05/01 00:15:20;;;;;;;12.43;6.25;;;;;;;20.97;50.49;100163.53;1813492;79;21169;-79
2021/05/01 00:17:48;;;;;;;;;;;;;;;20.92;50.48;100159.31;1815696;79;21058;-79
2021/05/01 00:20:18;;;;;;;7.70;5.20;;;;;;;20.93;50.37;100163.69;1830419;78;20287;-79
2021/05/01 00:22:45;;;;;;;8.08;5.80;;;;;;;20.90;50.43;100158.20;1787085;79;21150;-78
2021/05/01 00:25:13;;;;;;;7.08;5.30;;;;;;;20.89;50.42;100172.02;1812901;79;21201;-79
2021/05/01 00:27:42;;;;;;;7.15;5.22;;;;;;;20.87;50.44;100172.27;1818012;78;21168;-78
2021/05/01 00:30:11;;;;;;;8.28;5.22;;;;;;;20.85;50.36;100175.77;1821740;78;21173;-76
2021/05/01 00:32:38;;;;;;;8.25;5.20;;;;;;;20.85;50.35;100179.85;1821390;78;21139;-78
2021/05/01 00:35:08;;;;;;;6.90;5.17;;;;;;;20.85;50.30;100177.63;1858097;77;21544;-78
2021/05/01 00:37:35;;;;;;;7.37;4.15;;;;;;;20.82;50.26;100176.76;1857753;77;21174;-76
2021/05/01 00:40:05;;;;;;;7.90;5.17;;;;;;;20.82;50.18;100172.67;1857805;77;21196;-79
2021/05/01 00:42:33;;;;;;;5.90;4.85;;;;;;;20.81;50.13;100176.47;1791521;78;21148;-77
2021/05/01 00:45:00;;;;;;;5.90;4.50;;;;;;;20.81;50.12;100178.66;1824207;78;21130;-78
2021/05/01 00:47:28;;;;;;;5.40;4.37;;;;;;;20.80;50.03;100180.23;1824242;78;21036;-77
2021/05/01 00:49:54;;;;;;;;;;;;;;;20.80;50.02;100187.03;1860631;77;21123;-77
2021/05/01 00:52:21;;;;;;;6.30;4.30;;;;;;;20.74;49.99;100185.54;1857673;77;20277;-78
2021/05/01 00:54:50;;;;;;;5.72;4.33;;;;;;;20.71;50.03;100191.47;1857679;77;21114;-77
2021/05/01 00:57:18;;;;;;;6.60;3.75;;;;;;;20.68;49.96;100190.55;1857528;77;21062;-77
2021/05/01 00:59:45;;;;;;;4.85;4.05;;;;;;;20.67;49.99;100197.60;1854710;77;21205;-78
2021/05/01 01:02:15;;;;;;;;;;;;;;;20.66;49.99;100202.19;1857713;77;21181;-78
2021/05/01 01:04:41;;;;;;;7.33;4.85;;;;;;;20.66;49.98;100196.74;1857796;77;20257;-80
2021/05/01 01:07:09;;;;;;;6.22;3.92;;;;;;;20.64;50.04;100205.68;1857939;77;21059;-79
2021/05/01 01:09:38;;;;;;;6.85;4.65;;;;;;;20.63;50.00;100206.75;1827665;77;21610;-80
2021/05/01 01:12:06;;;;;;;6.03;4.28;;;;;;;20.62;49.98;100209.18;1857954;77;21119;-79
2021/05/01 01:14:34;;;;;;;4.97;4.30;;;;;;;20.60;49.99;100208.56;1820150;78;21129;-76
2021/05/01 01:17:01;;;;;;;6.67;4.20;;;;;;;20.58;50.00;100218.86;1858080;77;21067;-77
2021/05/01 01:19:30;;;;;;;4.70;3.90;;;;;;;20.57;50.04;100225.34;1857708;77;21513;-79
2021/05/01 01:21:58;;;;;;;5.62;3.90;;;;;;;20.58;50.06;100224.84;1822575;78;21070;-78
2021/05/01 01:24:30;;;;;;;;;;;;;;;20.56;50.10;100220.96;1825108;78;21127;-76
2021/05/01 01:26:55;;;;;;;6.65;4.55;;;;;;;20.55;50.09;100222.03;1822296;78;20271;-79
2021/05/01 01:29:22;;;;;;;;;;;;;;;20.53;50.12;100225.52;1830189;77;21141;-79
2021/05/01 01:31:49;;;;;;;8.78;4.80;;;;;;;20.50;50.10;100228.69;1858148;77;20467;-79
2021/05/01 01:34:16;;;;;;;6.33;4.12;;;;;;;20.47;50.16;100227.75;1858033;77;21113;-76
2021/05/01 01:36:43;;;;;;;5.87;3.70;;;;;;;20.43;50.28;100230.63;1857992;77;21122;-77
2021/05/01 01:39:11;;;;;;;4.92;3.95;;;;;;;20.42;50.29;100227.61;1857969;77;21081;-79
2021/05/01 01:41:38;;;;;;;5.95;4.40;;;;;;;20.40;50.39;100229.20;1858134;77;21567;-78
2021/05/01 01:44:05;;;;;;;;;;;;;;;20.41;50.44;100238.19;1860497;77;21104;-80
2021/05/01 01:46:33;;;;;;;5.83;4.30;;;;;;;20.41;50.39;100242.27;1856044;77;20498;-80
2021/05/01 01:49:01;;;;;;;5.67;4.87;;;;;;;20.37;50.47;100245.14;1857771;77;21648;-79
2021/05/01 01:51:29;;;;;;;6.87;4.45;;;;;;;20.36;50.49;100244.31;1856454;77;21227;-79
2021/05/01 01:53:56;;;;;;;9.08;4.95;;;;;;;20.35;50.43;100247.24;1825754;77;21185;-78
2021/05/01 01:56:25;;;;;;;6.30;4.20;;;;;;;20.34;50.45;100242.34;1856448;77;21200;-77
2021/05/01 01:58:54;;;;;;;7.20;4.42;;;;;;;20.33;50.49;100242.05;1856470;77;21183;-78
2021/05/01 02:01:22;;;;;;;7.97;5.25;;;;;;;20.32;50.55;100245.00;1856507;77;21156;-78
2021/05/01 02:03:49;;;;;;;6.17;5.20;;;;;;;20.33;50.55;100252.09;1856301;77;21161;-77
2021/05/01 02:06:16;;;;;;;5.35;4.85;;;;;;;20.31;50.61;100247.42;1857433;77;21105;-76
2021/05/01 02:08:43;;;;;;;9.05;5.60;;;;;;;20.28;50.64;100254.96;1857820;77;21112;-77
2021/05/01 02:11:11;;;;;;;6.30;5.42;;;;;;;20.27;50.62;100251.95;1857963;77;21517;-77
2021/05/01 02:13:39;;;;;;;7.35;5.33;;;;;;;20.26;50.65;100257.63;1857973;77;21070;-78
2021/05/01 02:16:06;;;;;;;;;;;;;;;20.23;50.72;100257.53;1857778;77;21544;-78
2021/05/01 02:18:33;;;;;;;10.00;5.80;;;;;;;20.22;50.77;100258.59;1858009;77;20205;-77
2021/05/01 02:21:00;;;;;;;11.28;6.47;;;;;;;20.21;50.87;100256.95;1858116;77;21069;-77
2021/05/01 02:23:27;;;;;;;;;;;;;;;20.19;50.86;100263.66;1829838;77;21045;-78
2021/05/01 02:25:54;;;;;;;9.50;6.12;;;;;;;20.19;50.83;100254.96;1857832;77;20210;-78
2021/05/01 02:28:21;;;;;;;7.37;6.58;;;;;;;20.15;50.80;100261.91;1857890;77;21062;-77
2021/05/01 02:30:49;;;;;;;9.00;6.40;;;;;;;20.13;50.75;100270.84;1859048;77;21184;-77
2021/05/01 02:33:16;;;;;;;;;;;;;;;20.13;50.72;100276.27;1861823;77;21537;-76
2021/05/01 02:35:44;;;;;;;7.62;5.62;;;;;;;20.12;50.74;100275.98;1858080;77;20213;-77
2021/05/01 02:38:12;;;;;;;8.58;5.83;;;;;;;20.10;50.81;100282.69;1858007;77;21184;-78
2021/05/01 02:40:41;;;;;;;8.18;6.12;;;;;;;20.09;50.87;100286.47;1857824;77;21545;-77
2021/05/01 02:43:10;;;;;;;8.18;5.95;;;;;;;20.08;50.86;100283.45;1857975;77;21029;-77
2021/05/01 02:45:37;;;;;;;9.85;5.97;;;;;;;20.08;50.84;100287.00;1857953;77;21121;-76
2021/05/01 02:48:08;;;;;;;7.95;5.78;;;;;;;20.07;50.79;100295.36;1857640;77;21177;-77
2021/05/01 02:50:35;;;;;;;10.78;5.80;;;;;;;20.04;50.79;100303.45;1857866;77;21109;-76
2021/05/01 02:53:02;;;;;;;8.18;6.03;;;;;;;20.00;50.82;100304.42;1857764;77;21623;-76
2021/05/01 02:55:29;;;;;;;9.53;6.17;;;;;;;19.99;50.85;100314.17;1823330;78;21437;-75
2021/05/01 02:57:57;;;;;;;9.18;6.83;;;;;;;19.98;50.91;100313.84;1765621;80;21172;-75
2021/05/01 03:00:27;;;;;;;15.85;8.00;;;;;;;19.95;50.93;100310.23;1823073;78;21184;-77
2021/05/01 03:02:54;;;;;;;10.35;7.00;;;;;;;19.95;50.94;100317.03;1823444;78;21176;-76
2021/05/01 03:05:26;;;;;;;9.80;7.17;;;;;;;19.94;50.94;100318.05;1796217;78;21627;-77
2021/05/01 03:07:55;;;;;;;10.90;6.28;;;;;;;19.92;50.87;100316.93;1794158;80;21660;-78
2021/05/01 03:10:25;;;;;;;8.90;6.67;;;;;;;19.92;50.87;100319.66;1821002;78;21661;-78
2021/05/01 03:12:54;;;;;;;8.75;7.08;;;;;;;19.91;50.91;100317.16;1800351;79;21661;-77
2021/05/01 03:15:22;;;;;;;10.25;7.85;;;;;;;19.90;50.94;100323.13;1800241;77;21154;-77
2021/05/01 03:17:50;;;;;;;12.88;7.35;;;;;;;19.90;50.97;100331.82;1800353;79;21175;-76
2021/05/01 03:20:17;;;;;;;9.33;7.22;;;;;;;19.89;51.02;100339.64;1800510;79;21151;-76
2021/05/01 03:22:47;;;;;;;10.88;7.87;;;;;;;19.86;51.10;100336.03;1800346;79;21342;-79
2021/05/01 03:25:15;;;;;;;8.08;6.70;;;;;;;19.84;51.21;100339.48;1799807;79;21174;-77
2021/05/01 03:27:42;;;;;;;9.10;8.15;;;;;;;19.83;51.29;100331.03;1800082;79;21166;-77
2021/05/01 03:30:13;;;;;;;11.10;7.90;;;;;;;19.81;51.44;100335.34;1800234;79;21654;-81
2021/05/01 03:32:42;;;;;;;11.48;9.03;;;;;;;19.84;51.62;100339.48;1800205;79;21764;-78
2021/05/01 03:35:10;;;;;;;13.98;8.78;;;;;;;19.85;51.72;100341.14;1799746;79;22016;-77
2021/05/01 03:37:38;;;;;;;13.75;9.80;;;;;;;19.86;51.70;100345.02;1800449;79;21186;-77
2021/05/01 03:40:08;;;;;;;12.40;9.43;;;;;;;19.87;51.80;100345.84;1780109;79;21450;-77
2021/05/01 03:42:36;;;;;;;15.63;9.08;;;;;;;19.88;51.87;100348.86;1816382;78;21185;-77
2021/05/01 03:45:06;;;;;;;13.88;10.05;;;;;;;19.89;51.96;100346.44;1824518;78;21125;-78
2021/05/01 03:47:34;;;;;;;13.22;9.40;;;;;;;19.90;52.02;100348.95;1817914;79;21153;-77
2021/05/01 03:50:01;;;;;;;11.57;10.28;;;;;;;19.94;52.08;100346.10;1793028;79;21489;-77
2021/05/01 03:52:28;;;;;;;16.65;11.12;;;;;;;19.97;52.10;100342.09;1823769;77;21068;-77
2021/05/01 03:54:56;;;;;;;14.07;11.15;;;;;;;19.99;52.20;100340.83;1825481;78;21688;-78
2021/05/01 03:57:25;;;;;;;17.20;12.35;;;;;;;20.04;52.15;100344.77;1820968;78;21187;-79
2021/05/01 03:59:52;;;;;;;;;;;;;;;20.08;52.09;100346.81;1827632;78;21140;-78
2021/05/01 04:02:19;;;;;;;14.90;11.50;;;;;;;20.14;52.07;100351.35;1822264;77;20247;-78
2021/05/01 04:04:46;;;;;;;;;;;;;;;20.18;52.06;100358.01;1780475;79;21194;-78
2021/05/01 04:07:13;;;;;;;15.35;11.80;;;;;;;20.24;52.04;100353.03;1792953;78;20274;-77
2021/05/01 04:09:41;;;;;;;16.35;12.95;;;;;;;20.31;51.99;100362.50;1824289;78;21191;-76
2021/05/01 04:12:09;;;;;;;18.85;11.93;;;;;;;20.38;51.82;100363.77;1823829;78;21222;-75
2021/05/01 04:14:36;;;;;;;17.17;12.40;;;;;;;20.43;51.73;100371.56;1819861;78;21189;-76
2021/05/01 04:17:03;;;;;;;16.02;11.20;;;;;;;20.50;51.64;100370.18;1787698;80;21045;-78
2021/05/01 04:19:32;;;;;;;15.30;11.18;;;;;;;20.56;51.58;100373.88;1806434;79;21157;-75
2021/05/01 04:22:05;;;;;;;16.52;12.78;;;;;;;20.62;51.56;100379.27;1789137;80;21156;-77
2021/05/01 04:24:32;;;;;;;18.92;12.40;;;;;;;20.66;51.45;100385.89;1779705;79;21173;-78
2021/05/01 04:27:00;;;;;;;13.00;10.40;;;;;;;20.71;51.31;100383.86;1782895;77;21181;-78
2021/05/01 04:29:27;;;;;;;;;;;;;;;20.75;51.14;100391.88;1820545;78;21146;-79
2021/05/01 04:31:54;;;;;;;16.97;10.98;;;;;;;20.81;51.07;100384.18;1803478;78;20214;-77
2021/05/01 04:34:21;;;;;;;15.30;11.68;;;;;;;20.83;51.01;100390.75;1803389;79;21616;-77
2021/05/01 04:36:49;;;;;;;16.00;10.82;;;;;;;20.88;50.94;100396.34;1811646;77;21194;-76
2021/05/01 04:39:16;;;;;;;14.38;10.32;;;;;;;20.95;50.80;100402.55;1807299;78;21174;-78
2021/05/01 04:41:45;;;;;;;11.30;9.53;;;;;;;21.02;50.85;100404.11;1824030;78;21168;-77
2021/05/01 04:44:13;;;;;;;13.68;9.83;;;;;;;21.12;50.73;100399.52;1847867;77;21194;-76
2021/05/01 04:46:40;;;;;;;14.38;10.60;;;;;;;21.24;50.42;100405.01;1855503;77;21403;-77
2021/05/01 04:49:07;;;;;;;14.03;9.80;;;;;;;21.32;50.03;100414.80;1855800;77;21712;-77
2021/05/01 04:51:35;;;;;;;16.12;9.88;;;;;;;21.39;49.96;100406.84;1854321;77;21222;-76
2021/05/01 04:54:03;;;;;;;11.08;8.50;;;;;;;21.50;49.73;100410.67;1854703;77;21190;-79
2021/05/01 04:56:31;;;;;;;11.95;8.08;;;;;;;21.56;49.32;100407.55;1855281;77;21205;-77
2021/05/01 04:58:58;;;;;;;10.08;7.45;;;;;;;21.59;49.19;100409.28;1825912;77;21150;-76
2021/05/01 05:01:25;;;;;;;9.25;7.20;;;;;;;21.65;49.13;100408.88;1827012;77;21163;-76
2021/05/01 05:03:53;;;;;;;9.90;7.47;;;;;;;21.73;48.99;100414.00;1855802;77;21362;-80
2021/05/01 05:06:21;;;;;;;9.15;6.50;;;;;;;21.79;48.92;100412.53;1828706;77;21130;-79
2021/05/01 05:08:49;;;;;;;;;;;;;;;21.87;48.44;100409.18;1842318;77;21630;-76
2021/05/01 05:11:20;;;;;;;8.88;6.60;;;;;;;21.93;48.29;100409.06;1838998;76;20539;-79
2021/05/01 05:13:47;;;;;;;10.58;7.33;;;;;;;21.97;48.08;100417.61;1848274;77;21610;-76
2021/05/01 05:16:14;;;;;;;10.03;6.45;;;;;;;22.02;48.14;100417.20;1827958;77;21771;-77
2021/05/01 05:18:41;;;;;;;;;;;;;;;22.07;47.93;100423.31;1844270;76;21164;-76
2021/05/01 05:21:10;;;;;;;9.35;5.40;;;;;;;22.15;47.67;100423.55;1838339;77;20253;-78
2021/05/01 05:23:37;;;;;;;;;;;;;;;22.19;47.40;100426.94;1826612;77;21165;-79
2021/05/01 05:26:04;;;;;;;8.63;6.10;;;;;;;22.25;47.41;100434.16;1822547;78;20276;-77
2021/05/01 05:28:31;;;;;;;6.90;5.70;;;;;;;22.32;47.31;100435.44;1824003;78;21094;-78
2021/05/01 05:30:59;;;;;;;6.08;5.47;;;;;;;22.40;47.28;100438.36;1833268;77;21063;-78
2021/05/01 05:33:26;;;;;;;7.37;5.33;;;;;;;22.45;47.15;100441.20;1813626;77;21211;-78
2021/05/01 05:35:53;;;;;;;6.85;5.50;;;;;;;22.49;47.00;100445.12;1823247;77;21206;-77
2021/05/01 05:38:20;;;;;;;7.08;6.28;;;;;;;22.34;47.34;100446.11;1827641;77;22199;-79
2021/05/01 05:40:47;;;;;;;11.35;6.40;;;;;;;22.32;47.42;100440.06;1847998;77;21177;-77
2021/05/01 05:43:15;;;;;;;8.93;6.47;;;;;;;22.37;47.42;100436.09;1824161;78;21189;-77
2021/05/01 05:45:45;;;;;;;6.95;5.62;;;;;;;22.42;47.38;100430.75;1823943;78;21190;-79
2021/05/01 05:48:11;;;;;;;7.70;5.58;;;;;;;22.48;47.16;100432.52;1823096;78;21161;-80
2021/05/01 05:50:38;;;;;;;9.20;5.85;;;;;;;22.56;47.01;100434.91;1825143;77;21184;-77
2021/05/01 05:53:05;;;;;;;;;;;;;;;22.64;46.93;100441.38;1859745;77;21185;-80
2021/05/01 05:55:33;;;;;;;6.97;5.45;;;;;;;22.69;46.62;100443.39;1856353;77;20285;-77
2021/05/01 05:58:03;;;;;;;7.80;5.58;;;;;;;22.73;46.57;100439.11;1856347;77;21182;-76
2021/05/01 06:00:31;;;;;;;7.78;5.80;;;;;;;22.79;46.40;100444.44;1856203;77;21394;-78
2021/05/01 06:03:00;;;;;;;7.05;5.65;;;;;;;22.87;46.22;100453.35;1856259;77;21202;-79
2021/05/01 06:05:38;;;;;;;7.90;5.37;;;;;;;22.93;46.09;100455.97;1837698;77;21155;-78
2021/05/01 06:08:06;;;;;;;6.00;5.15;;;;;;;23.00;45.98;100456.69;1838311;77;21743;-77
2021/05/01 06:10:33;;;;;;;6.87;5.35;;;;;;;23.11;45.72;100465.92;1844205;77;21198;-78
2021/05/01 06:13:04;;;;;;;8.15;6.20;;;;;;;23.23;45.54;100461.27;1838001;76;21222;-79
2021/05/01 06:15:31;;;;;;;8.68;5.05;;;;;;;23.34;45.41;100460.94;1830392;77;21161;-80
2021/05/01 06:18:00;;;;;;;6.72;4.97;;;;;;;23.48;45.04;100472.42;1813181;78;21185;-77
2021/05/01 06:20:29;;;;;;;6.72;4.10;;;;;;;23.61;44.77;100470.77;1809590;78;21201;-79
2021/05/01 06:22:59;;;;;;;6.45;4.75;;;;;;;23.76;44.52;100466.19;1841073;77;21192;-78
2021/05/01 06:25:27;;;;;;;5.15;4.30;;;;;;;23.92;44.08;100468.64;1837966;77;21193;-76
2021/05/01 06:27:55;;;;;;;6.92;4.60;;;;;;;24.09;43.48;100470.05;1792294;78;21215;-79
2021/05/01 06:30:23;;;;;;;5.03;4.35;;;;;;;24.23;43.06;100472.20;1806263;78;21161;-78
2021/05/01 06:32:51;;;;;;;4.80;4.00;;;;;;;24.41;42.71;100484.03;1812622;77;21194;-76
2021/05/01 06:35:19;;;;;;;7.78;3.77;;;;;;;24.54;42.35;100468.09;1786805;80;21215;-78
2021/05/01 06:37:47;;;;;;;6.28;4.15;;;;;;;24.70;41.92;100466.95;1821482;78;21173;-77
2021/05/01 06:40:17;;;;;;;10.80;5.35;;;;;;;24.92;41.55;100473.30;1793509;77;21703;-78
2021/05/01 06:42:59;;;;;;;16.57;7.47;;;;;;;25.08;41.24;100479.87;1820080;78;21215;-78
2021/05/01 06:45:28;;;;;;;9.13;5.92;;;;;;;25.20;40.62;100481.09;1820324;78;21199;-82
2021/05/01 06:48:04;;;;;;;6.42;4.37;;;;;;;25.38;40.59;100482.70;1856082;77;21188;-78
2021/05/01 06:50:32;;;;;;;11.25;7.22;;;;;;;25.56;40.29;100487.84;1856123;77;21176;-79
2021/05/01 06:53:01;;;;;;;11.90;6.30;;;;;;;25.73;39.79;100487.23;1855892;77;21208;-77
2021/05/01 06:55:31;;;;;;;12.95;5.85;;;;;;;25.87;39.39;100487.68;1845995;77;21161;-77
2021/05/01 06:58:00;;;;;;;7.05;5.40;;;;;;;26.03;39.19;100495.54;1807862;78;21188;-78
2021/05/01 07:00:29;;;;;;;6.87;4.85;;;;;;;26.22;38.96;100498.73;1807724;79;21165;-78
2021/05/01 07:03:07;;;;;;;7.10;5.20;;;;;;;26.42;38.41;100495.32;1817015;79;21161;-78
2021/05/01 07:05:35;;;;;;;11.85;5.78;;;;;;;26.59;38.22;100497.41;1806425;77;21168;-77
2021/05/01 07:08:05;;;;;;;9.15;5.05;;;;;;;26.81;37.95;100498.67;1828139;77;21176;-77
2021/05/01 07:10:32;;;;;;;8.43;5.55;;;;;;;27.00;37.48;100497.14;1818824;78;21200;-77
2021/05/01 07:13:00;;;;;;;6.20;5.45;;;;;;;27.13;37.07;100493.67;1832503;78;21175;-76
2021/05/01 07:15:29;;;;;;;7.50;5.55;;;;;;;27.24;36.57;100492.06;1832670;78;21164;-80
2021/05/01 07:17:57;;;;;;;6.78;4.25;;;;;;;27.28;36.27;100495.93;1830082;77;21208;-78
2021/05/01 07:20:25;;;;;;;6.40;4.80;;;;;;;27.33;35.73;100486.05;1799406;77;21357;-80
2021/05/01 07:22:55;;;;;;;6.17;5.42;;;;;;;27.41;35.09;100492.42;1820603;78;21462;-76
2021/05/01 07:25:24;;;;;;;7.53;6.05;;;;;;;27.47;34.95;100489.41;1854939;77;21723;-78
2021/05/01 07:27:56;;;;;;;9.15;6.15;;;;;;;27.52;34.96;100494.09;1804959;77;21163;-78
2021/05/01 07:30:27;;;;;;;9.83;6.25;;;;;;;27.52;34.66;100492.17;1831762;77;21121;-78
2021/05/01 07:33:22;;;;;;;7.58;5.40;;;;;;;27.53;34.39;100488.90;1856154;77;21245;-80
2021/05/01 07:35:55;;;;;;;6.92;6.20;;;;;;;27.51;34.39;100489.70;1836057;77;21200;-80
2021/05/01 07:38:24;;;;;;;8.40;6.45;;;;;;;27.57;34.36;100487.27;1811014;78;21180;-81
2021/05/01 07:40:52;;;;;;;8.25;5.65;;;;;;;27.59;34.20;100489.18;1799508;78;21200;-79
2021/05/01 07:43:21;;;;;;;6.33;5.65;;;;;;;27.60;33.90;100486.70;1790407;78;21215;-77
2021/05/01 07:45:53;;;;;;;7.45;5.65;;;;;;;27.63;33.94;100486.17;1854850;77;21180;-80
2021/05/01 07:48:21;;;;;;;9.95;5.28;;;;;;;27.69;33.51;100495.26;1855825;77;21695;-76
2021/05/01 07:50:50;;;;;;;5.40;4.25;;;;;;;27.75;33.46;100490.06;1846115;77;21236;-77
2021/05/01 07:53:17;;;;;;;5.47;4.20;;;;;;;27.87;32.39;100487.08;1790527;78;21117;-78
2021/05/01 07:55:47;;;;;;;6.10;4.47;;;;;;;27.97;32.13;100489.84;1821992;78;21184;-77
2021/05/01 07:58:14;;;;;;;8.10;5.53;;;;;;;28.08;31.15;100499.79;1807461;77;21175;-79
2021/05/01 08:00:43;;;;;;;8.18;5.33;;;;;;;28.14;31.24;100504.75;1791433;78;21248;-78
2021/05/01 08:03:11;;;;;;;8.48;5.58;;;;;;;28.15;31.70;100511.34;1851104;77;21181;-76
2021/05/01 08:05:38;;;;;;;6.20;5.58;;;;;;;28.15;31.75;100509.15;1854302;77;21165;-78
2021/05/01 08:08:06;;;;;;;8.83;5.62;;;;;;;28.14;31.65;100513.01;1856162;77;21659;-78
2021/05/01 08:10:35;;;;;;;9.65;6.10;;;;;;;28.16;31.35;100519.05;1842791;77;21196;-79
2021/05/01 08:13:02;;;;;;;6.65;5.15;;;;;;;28.13;31.28;100523.20;1803438;77;21196;-78
2021/05/01 08:15:33;;;;;;;9.40;5.55;;;;;;;28.08;30.79;100523.20;1818378;77;21153;-77
2021/05/01 08:18:01;;;;;;;8.08;6.28;;;;;;;28.04;30.22;100521.53;1812732;78;21180;-78
2021/05/01 08:20:31;;;;;;;7.17;5.70;;;;;;;28.02;31.00;100522.89;1807152;78;21193;-78
2021/05/01 08:22:59;;;;;;;6.60;5.75;;;;;;;28.04;30.89;100520.16;1844438;77;21158;-80
2021/05/01 08:25:26;;;;;;;7.00;6.28;;;;;;;28.09;30.76;100527.59;1855689;77;21449;-78
2021/05/01 08:27:54;;;;;;;11.18;6.55;;;;;;;28.09;31.44;100520.71;1855036;77;21166;-78
2021/05/01 08:30:22;;;;;;;6.40;5.78;;;;;;;28.04;31.53;100522.09;1821151;77;21201;-79
2021/05/01 08:32:49;;;;;;;8.08;5.90;;;;;;;28.05;31.60;100519.60;1846397;76;21186;-78
2021/05/01 08:35:17;;;;;;;9.68;6.28;;;;;;;28.04;31.96;100527.59;1844750;76;21681;-80
2021/05/01 08:37:45;;;;;;;6.78;5.70;;;;;;;27.55;32.79;100529.34;1850460;76;21169;-77
2021/05/01 08:40:13;;;;;;;6.62;5.92;;;;;;;27.45;33.13;100528.75;1852538;77;21202;-78
2021/05/01 08:42:45;;;;;;;9.20;6.47;;;;;;;27.36;32.76;100532.28;1821659;78;21102;-78
2021/05/01 08:45:16;;;;;;;7.60;5.92;;;;;;;27.26;33.23;100536.64;1823493;77;21105;-78
2021/05/01 08:47:47;;;;;;;6.50;5.87;;;;;;;27.17;32.92;100534.11;1821718;78;21153;-78
2021/05/01 08:50:33;;;;;;;6.80;5.83;;;;;;;27.02;32.96;100529.30;1821348;78;21146;-80
2021/05/01 08:53:02;;;;;;;10.25;6.05;;;;;;;26.88;32.98;100534.16;1821206;78;21189;-77
2021/05/01 08:55:34;;;;;;;7.30;6.20;;;;;;;26.77;33.11;100538.22;1824872;77;21459;-76
2021/05/01 08:58:08;;;;;;;9.18;6.78;;;;;;;26.71;33.42;100543.95;1815800;79;21735;-79
2021/05/01 09:00:39;;;;;;;7.17;6.15;;;;;;;26.66;33.19;100544.74;1817273;78;21173;-78
2021/05/01 09:03:09;;;;;;;9.00;7.20;;;;;;;26.59;33.24;100543.30;1825612;76;21220;-77
2021/05/01 09:05:37;;;;;;;9.83;6.35;;;;;;;26.47;33.42;100544.83;1824239;77;21176;-78
2021/05/01 09:08:06;;;;;;;6.87;6.08;;;;;;;26.39;33.45;100537.89;1830278;77;21414;-77
2021/05/01 09:10:42;;;;;;;8.18;6.12;;;;;;;26.30;33.83;100540.27;1797567;78;21184;-76
2021/05/01 09:13:31;;;;;;;8.17;6.83;;;;;;;26.28;33.72;100538.31;1871540;76;27943;-82
2021/05/01 09:16:07;;;;;;;8.03;6.37;;;;;;;26.40;33.83;100537.34;1812528;79;21134;-77
2021/05/01 09:18:57;;;;;;;9.88;6.58;;;;;;;26.31;34.13;100541.92;1845363;77;21204;-77
2021/05/01 09:21:30;;;;;;;8.28;6.28;;;;;;;26.27;34.20;100540.78;1812728;78;21191;-77
2021/05/01 09:23:58;;;;;;;7.30;6.53;;;;;;;26.22;34.12;100543.48;1812002;78;21166;-79
2021/05/01 09:26:39;;;;;;;9.18;6.33;;;;;;;26.14;34.24;100542.58;1811811;78;21178;-75
2021/05/01 09:29:09;;;;;;;8.33;7.10;;;;;;;26.06;34.00;100543.03;1811506;79;21177;-77
2021/05/01 09:31:44;;;;;;;11.25;7.00;;;;;;;25.98;34.25;100542.98;1812300;78;21488;-77
2021/05/01 09:34:11;;;;;;;10.00;6.70;;;;;;;25.90;34.42;100550.30;1788946;79;21210;-77
2021/05/01 09:36:39;;;;;;;10.75;7.10;;;;;;;25.80;34.46;100553.75;1789773;79;21460;-77
2021/05/01 09:39:09;;;;;;;8.48;6.47;;;;;;;25.73;34.77;100550.88;1811770;79;21150;-77
2021/05/01 09:41:43;;;;;;;7.00;6.30;;;;;;;25.64;34.89;100547.75;1843112;77;21162;-78
2021/05/01 09:44:14;;;;;;;8.90;6.55;;;;;;;25.55;35.33;100549.28;1846218;77;21164;-77
2021/05/01 09:46:52;;;;;;;7.62;6.15;;;;;;;25.47;35.41;100545.61;1812545;79;21202;-78
2021/05/01 09:49:28;;;;;;;8.83;6.62;;;;;;;25.44;35.58;100548.88;1772761;79;21170;-77
2021/05/01 09:52:10;;;;;;;7.65;6.25;;;;;;;25.37;35.41;100550.97;1795825;79;21176;-81
2021/05/01 09:54:41;;;;;;;7.67;6.00;;;;;;;25.29;35.50;100550.31;1822950;78;21196;-79
2021/05/01 09:57:17;;;;;;;7.53;5.47;;;;;;;25.22;35.55;100554.34;1803940;78;21396;-76
2021/05/01 09:59:49;;;;;;;7.12;6.35;;;;;;;25.15;35.20;100553.13;1810761;79;21169;-76
2021/05/01 10:02:32;;;;;;;7.37;6.17;;;;;;;25.09;34.97;100552.78;1844476;77;21570;-79
2021/05/01 10:05:12;;;;;;;8.83;5.92;;;;;;;25.03;35.28;100553.77;1782346;79;21733;-79
2021/05/01 10:07:41;;;;;;;9.40;6.17;;;;;;;24.95;35.19;100546.79;1766789;79;21197;-77
2021/05/01 10:10:09;;;;;;;10.32;5.83;;;;;;;24.91;35.23;100546.17;1807781;77;21234;-75
2021/05/01 10:12:41;;;;;;;7.55;5.70;;;;;;;24.88;35.37;100554.34;1820561;77;21183;-77
2021/05/01 10:15:17;;;;;;;6.95;6.25;;;;;;;24.84;35.49;100548.24;1812944;79;21626;-76
2021/05/01 10:17:48;;;;;;;8.90;6.28;;;;;;;24.79;35.47;100554.47;1812411;79;21191;-78
2021/05/01 10:20:16;;;;;;;7.85;6.03;;;;;;;24.72;35.47;100551.09;1812403;79;21174;-79
2021/05/01 10:22:50;;;;;;;8.70;6.30;;;;;;;24.65;35.58;100555.34;1825759;77;21193;-76
2021/05/01 10:25:25;;;;;;;7.00;5.92;;;;;;;24.60;35.63;100557.17;1832659;77;21691;-81
2021/05/01 10:28:00;;;;;;;8.93;5.72;;;;;;;24.54;35.29;100565.85;1844866;77;21197;-80
2021/05/01 10:33:29;;;;;;;10.65;6.60;;;;;;;24.38;35.03;100559.81;1845745;77;21884;-76
2021/05/01 10:36:20;;;;;;;9.98;6.47;;;;;;;24.26;34.98;100559.31;1845088;77;21202;-78
2021/05/01 10:39:01;;;;;;;10.15;5.62;;;;;;;24.21;34.81;100558.37;1844616;77;22192;-79
2021/05/01 10:41:31;;;;;;;10.30;5.72;;;;;;;24.12;34.40;100552.48;1817756;77;21185;-82
2021/05/01 10:44:01;;;;;;;7.70;5.55;;;;;;;24.06;34.49;100550.71;1812475;77;21201;-81
2021/05/01 10:46:38;;;;;;;8.00;5.33;;;;;;;24.01;33.91;100545.98;1805309;79;21197;-80
2021/05/01 10:49:09;;;;;;;5.40;4.20;;;;;;;23.95;33.98;100543.40;1812231;79;21205;-78
2021/05/01 10:51:40;;;;;;;6.95;4.03;;;;;;;23.95;34.29;100537.93;1782295;80;21182;-77
2021/05/01 10:54:26;;;;;;;6.20;4.05;;;;;;;23.98;34.21;100542.89;1822559;78;21162;-78
2021/05/01 10:56:56;;;;;;;5.97;4.22;;;;;;;24.00;33.60;100545.69;1787980;78;21189;-78
2021/05/01 10:59:33;;;;;;;4.80;3.85;;;;;;;24.01;32.70;100538.31;1786332;80;21097;-78
2021/05/01 11:02:01;;;;;;;5.42;3.85;;;;;;;24.02;32.92;100539.96;1786471;78;21114;-79
2021/05/01 11:04:29;;;;;;;6.30;3.90;;;;;;;24.05;32.68;100535.37;1803088;78;21137;-79
2021/05/01 11:07:32;;;;;;;6.83;4.33;;;;;;;24.07;32.16;100537.31;1845074;77;21066;-79
2021/05/01 11:10:05;;;;;;;5.28;4.78;;;;;;;24.07;32.64;100529.65;1772693;79;21141;-76
2021/05/01 11:12:35;;;;;;;6.62;5.12;;;;;;;24.06;33.54;100530.19;1774493;79;21549;-79
2021/05/01 11:15:10;;;;;;;6.87;5.40;;;;;;;24.03;33.90;100527.42;1810674;78;20979;-78
2021/05/01 11:17:43;;;;;;;6.03;5.37;;;;;;;24.02;34.36;100523.55;1788024;80;21196;-80
2021/05/01 11:20:13;;;;;;;5.10;4.60;;;;;;;24.00;34.78;100525.17;1777032;79;21026;-79
2021/05/01 11:22:43;;;;;;;7.37;4.87;;;;;;;24.01;34.80;100528.73;1768211;80;21510;-79
2021/05/01 11:25:13;;;;;;;6.53;4.40;;;;;;;24.01;34.21;100527.36;1788461;80;21647;-78
2021/05/01 11:27:42;;;;;;;5.55;4.70;;;;;;;23.99;33.78;100524.05;1789833;79;21576;-80
2021/05/01 11:30:11;;;;;;;6.60;4.58;;;;;;;23.96;33.36;100517.70;1757365;80;21189;-79
2021/05/01 11:32:39;;;;;;;8.38;3.77;;;;;;;23.93;33.38;100516.27;1757039;80;21229;-78
2021/05/01 11:35:14;;;;;;;7.92;5.10;;;;;;;23.93;32.70;100512.70;1790651;80;21165;-80
2021/05/01 11:37:51;;;;;;;7.40;5.90;;;;;;;23.90;33.13;100509.94;1789250;80;21192;-78
2021/05/01 11:40:22;;;;;;;6.65;5.83;;;;;;;23.90;34.07;100515.41;1788096;80;21561;-78